sensor_id;sensor_type;location;lat;lon;timestamp;pressure;altitude;pressure_sealevel;temperature;humidity
29433;BME280;16405;53.964;13.448;2024-01-06T00:01:22;100441.41;;;-1.94;97.27
29433;BME280;16405;53.964;13.448;2024-01-06T00:04:33;100444.84;;;-1.92;97.16
29433;BME280;16405;53.964;13.448;2024-01-06T00:15:32;100450.00;;;-1.88;97.77
29433;BME280;16405;53.964;13.448;2024-01-06T00:18:43;100449.13;;;-1.93;97.39
29433;BME280;16405;53.964;13.448;2024-01-06T00:21:51;100442.22;;;-1.97;97.37
29433;BME280;16405;53.964;13.448;2024-01-06T00:24:51;100462.91;;;-1.92;97.52
29433;BME280;16405;53.964;13.448;2024-01-06T00:27:41;100472.34;;;-1.96;97.23
29433;BME280;16405;53.964;13.448;2024-01-06T00:35:13;100468.03;;;-1.97;97.08
29433;BME280;16405;53.964;13.448;2024-01-06T00:38:24;100466.34;;;-1.98;97.62
29433;BME280;16405;53.964;13.448;2024-01-06T00:41:03;100472.34;;;-1.96;96.77
29433;BME280;16405;53.964;13.448;2024-01-06T00:44:13;100491.28;;;-1.92;96.76
29433;BME280;16405;53.964;13.448;2024-01-06T00:50:53;100492.16;;;-1.87;96.02
29433;BME280;16405;53.964;13.448;2024-01-06T00:57:33;100488.72;;;-1.88;95.96
29433;BME280;16405;53.964;13.448;2024-01-06T01:01:23;100488.72;;;-1.88;95.54
29433;BME280;16405;53.964;13.448;2024-01-06T01:08:34;100498.16;;;-1.93;94.96
29433;BME280;16405;53.964;13.448;2024-01-06T01:11:00;100496.44;;;-1.94;95.05
29433;BME280;16405;53.964;13.448;2024-01-06T01:18:54;100499.88;;;-1.84;94.79
29433;BME280;16405;53.964;13.448;2024-01-06T01:29:02;100496.47;;;-1.83;94.43
29433;BME280;16405;53.964;13.448;2024-01-06T01:32:33;100501.59;;;-1.86;94.57
29433;BME280;16405;53.964;13.448;2024-01-06T01:35:44;100503.34;;;-1.80;93.51
29433;BME280;16405;53.964;13.448;2024-01-06T01:49:03;100517.94;;;-1.79;93.58
29433;BME280;16405;53.964;13.448;2024-01-06T01:52:13;100500.75;;;-1.85;93.01
29433;BME280;16405;53.964;13.448;2024-01-06T02:01:23;100522.25;;;-1.80;93.30
29433;BME280;16405;53.964;13.448;2024-01-06T02:04:35;100517.97;;;-1.78;93.21
29433;BME280;16405;53.964;13.448;2024-01-06T02:14:53;100530.84;;;-1.82;92.89
29433;BME280;16405;53.964;13.448;2024-01-06T02:17:35;100522.25;;;-1.81;92.99
29433;BME280;16405;53.964;13.448;2024-01-06T02:34:53;100540.31;;;-1.91;93.18
29433;BME280;16405;53.964;13.448;2024-01-06T03:00:11;100563.50;;;-2.01;94.41
29433;BME280;16405;53.964;13.448;2024-01-06T03:03:13;100562.66;;;-1.99;94.70
29433;BME280;16405;53.964;13.448;2024-01-06T03:06:10;100571.28;;;-1.94;94.39
29433;BME280;16405;53.964;13.448;2024-01-06T03:12:03;100563.53;;;-1.94;95.05
29433;BME280;16405;53.964;13.448;2024-01-06T03:14:43;100570.44;;;-1.94;95.01
29433;BME280;16405;53.964;13.448;2024-01-06T03:17:23;100578.19;;;-1.90;94.77
29433;BME280;16405;53.964;13.448;2024-01-06T03:20:13;100572.13;;;-1.90;94.53
29433;BME280;16405;53.964;13.448;2024-01-06T03:23:12;100570.44;;;-1.87;94.65
29433;BME280;16405;53.964;13.448;2024-01-06T03:26:22;100579.03;;;-1.88;94.69
29433;BME280;16405;53.964;13.448;2024-01-06T03:28:52;100579.91;;;-1.86;94.50
29433;BME280;16405;53.964;13.448;2024-01-06T03:32:18;100578.16;;;-1.87;94.88
29433;BME280;16405;53.964;13.448;2024-01-06T03:39:13;100595.38;;;-1.89;94.81
29433;BME280;16405;53.964;13.448;2024-01-06T03:41:53;100591.06;;;-1.87;95.06
29433;BME280;16405;53.964;13.448;2024-01-06T03:45:34;100609.16;;;-1.83;94.70
29433;BME280;16405;53.964;13.448;2024-01-06T03:48:03;100599.69;;;-1.83;95.06
29433;BME280;16405;53.964;13.448;2024-01-06T04:15:32;100602.28;;;-1.88;96.97
29433;BME280;16405;53.964;13.448;2024-01-06T04:18:24;100603.97;;;-1.87;96.15
29433;BME280;16405;53.964;13.448;2024-01-06T04:22:12;100608.28;;;-1.87;96.19
29433;BME280;16405;53.964;13.448;2024-01-06T04:28:13;100610.00;;;-1.88;96.56
29433;BME280;16405;53.964;13.448;2024-01-06T04:37:03;100616.88;;;-1.90;95.77
29433;BME280;16405;53.964;13.448;2024-01-06T04:39:43;100623.75;;;-1.89;95.62
29433;BME280;16405;53.964;13.448;2024-01-06T04:42:53;100614.31;;;-1.87;95.58
29433;BME280;16405;53.964;13.448;2024-01-06T04:45:34;100628.06;;;-1.84;95.49
29433;BME280;16405;53.964;13.448;2024-01-06T04:48:03;100628.09;;;-1.78;95.45
29433;BME280;16405;53.964;13.448;2024-01-06T04:57:33;100641.81;;;-1.89;94.29
29433;BME280;16405;53.964;13.448;2024-01-06T05:00:33;100646.16;;;-1.84;94.55
29433;BME280;16405;53.964;13.448;2024-01-06T05:06:43;100649.59;;;-1.87;94.37
29433;BME280;16405;53.964;13.448;2024-01-06T05:17:04;100654.78;;;-1.73;93.77
29433;BME280;16405;53.964;13.448;2024-01-06T05:20:04;100662.50;;;-1.73;92.96
29433;BME280;16405;53.964;13.448;2024-01-06T05:23:23;100656.47;;;-1.75;92.77
29433;BME280;16405;53.964;13.448;2024-01-06T05:26:23;100669.41;;;-1.72;92.07
29433;BME280;16405;53.964;13.448;2024-01-06T05:35:13;100689.22;;;-1.67;91.55
29433;BME280;16405;53.964;13.448;2024-01-06T05:38:04;100691.84;;;-1.62;91.76
29433;BME280;16405;53.964;13.448;2024-01-06T05:45:02;100695.25;;;-1.63;91.03
29433;BME280;16405;53.964;13.448;2024-01-06T05:47:43;100701.31;;;-1.59;89.97
29433;BME280;16405;53.964;13.448;2024-01-06T05:54:19;100709.91;;;-1.54;90.18
29433;BME280;16405;53.964;13.448;2024-01-06T05:57:24;100727.13;;;-1.52;90.06
29433;BME280;16405;53.964;13.448;2024-01-06T06:00:07;100722.00;;;-1.49;89.44
29433;BME280;16405;53.964;13.448;2024-01-06T06:02:54;100729.72;;;-1.52;88.95
29433;BME280;16405;53.964;13.448;2024-01-06T06:05:34;100734.00;;;-1.54;88.79
29433;BME280;16405;53.964;13.448;2024-01-06T06:08:31;100752.13;;;-1.46;88.24
29433;BME280;16405;53.964;13.448;2024-01-06T06:11:23;100750.38;;;-1.52;88.02
29433;BME280;16405;53.964;13.448;2024-01-06T06:13:53;100752.94;;;-1.59;87.49
29433;BME280;16405;53.964;13.448;2024-01-06T06:16:33;100757.25;;;-1.57;86.33
29433;BME280;16405;53.964;13.448;2024-01-06T06:19:13;100757.25;;;-1.57;86.15
29433;BME280;16405;53.964;13.448;2024-01-06T06:21:53;100755.50;;;-1.58;85.89
29433;BME280;16405;53.964;13.448;2024-01-06T06:25:03;100762.44;;;-1.51;86.16
29433;BME280;16405;53.964;13.448;2024-01-06T06:27:32;100769.31;;;-1.50;85.85
29433;BME280;16405;53.964;13.448;2024-01-06T06:32:34;100791.72;;;-1.46;85.10
29433;BME280;16405;53.964;13.448;2024-01-06T06:35:44;100778.81;;;-1.44;85.50
29433;BME280;16405;53.964;13.448;2024-01-06T06:42:03;100796.03;;;-1.41;85.40
29433;BME280;16405;53.964;13.448;2024-01-06T06:45:04;100808.94;;;-1.38;85.30
29433;BME280;16405;53.964;13.448;2024-01-06T06:47:43;100806.34;;;-1.43;84.91
29433;BME280;16405;53.964;13.448;2024-01-06T06:50:23;100811.53;;;-1.41;84.68
29433;BME280;16405;53.964;13.448;2024-01-06T06:53:33;100819.28;;;-1.38;84.56
29433;BME280;16405;53.964;13.448;2024-01-06T06:56:03;100827.91;;;-1.36;84.91
29433;BME280;16405;53.964;13.448;2024-01-06T06:59:23;100835.66;;;-1.38;84.92
29433;BME280;16405;53.964;13.448;2024-01-06T07:01:53;100830.50;;;-1.38;84.53
29433;BME280;16405;53.964;13.448;2024-01-06T07:04:31;100841.72;;;-1.33;84.35
29433;BME280;16405;53.964;13.448;2024-01-06T07:07:13;100845.19;;;-1.29;84.38
29433;BME280;16405;53.964;13.448;2024-01-06T07:09:54;100859.81;;;-1.28;84.14
29433;BME280;16405;53.964;13.448;2024-01-06T07:12:43;100844.28;;;-1.33;84.42
29433;BME280;16405;53.964;13.448;2024-01-06T07:15:14;100855.47;;;-1.40;83.91
29433;BME280;16405;53.964;13.448;2024-01-06T07:18:12;100846.03;;;-1.30;83.85
29433;BME280;16405;53.964;13.448;2024-01-06T07:21:00;100852.06;;;-1.31;83.92
29433;BME280;16405;53.964;13.448;2024-01-06T07:24:13;100860.66;;;-1.32;83.70
29433;BME280;16405;53.964;13.448;2024-01-06T07:26:43;100859.78;;;-1.33;84.38
29433;BME280;16405;53.964;13.448;2024-01-06T07:29:24;100866.72;;;-1.27;84.01
29433;BME280;16405;53.964;13.448;2024-01-06T07:32:32;100866.72;;;-1.22;84.04
29433;BME280;16405;53.964;13.448;2024-01-06T07:35:14;100871.03;;;-1.23;84.54
29433;BME280;16405;53.964;13.448;2024-01-06T07:37:52;100874.44;;;-1.26;83.78
29433;BME280;16405;53.964;13.448;2024-01-06T07:40:32;100877.03;;;-1.24;84.02
29433;BME280;16405;53.964;13.448;2024-01-06T07:43:12;100877.06;;;-1.19;83.75
29433;BME280;16405;53.964;13.448;2024-01-06T07:45:51;100877.91;;;-1.19;83.80
29433;BME280;16405;53.964;13.448;2024-01-06T07:48:17;100890.84;;;-1.17;84.35
29433;BME280;16405;53.964;13.448;2024-01-06T07:50:44;100888.28;;;-1.16;83.86
29433;BME280;16405;53.964;13.448;2024-01-06T07:53:31;100887.41;;;-1.19;83.63
29433;BME280;16405;53.964;13.448;2024-01-06T07:56:04;100890.81;;;-1.24;83.98
29433;BME280;16405;53.964;13.448;2024-01-06T07:58:42;100896.91;;;-1.18;82.94
29433;BME280;16405;53.964;13.448;2024-01-06T08:04:00;100921.00;;;-1.15;82.96
29433;BME280;16405;53.964;13.448;2024-01-06T08:06:41;100902.03;;;-1.17;82.37
29433;BME280;16405;53.964;13.448;2024-01-06T08:09:22;100901.16;;;-1.19;82.68
29433;BME280;16405;53.964;13.448;2024-01-06T08:12:27;100914.13;;;-1.16;82.41
29433;BME280;16405;53.964;13.448;2024-01-06T08:14:55;100932.19;;;-1.17;82.31
29433;BME280;16405;53.964;13.448;2024-01-06T08:17:24;100935.66;;;-1.15;81.97
29433;BME280;16405;53.964;13.448;2024-01-06T08:20:14;100955.50;;;-1.07;82.10
29433;BME280;16405;53.964;13.448;2024-01-06T08:22:43;100957.22;;;-1.09;81.68
29433;BME280;16405;53.964;13.448;2024-01-06T08:25:33;100946.06;;;-1.03;82.43
29433;BME280;16405;53.964;13.448;2024-01-06T08:28:02;100951.19;;;-1.06;82.14
29433;BME280;16405;53.964;13.448;2024-01-06T08:31:14;100966.75;;;-1.01;81.00
29433;BME280;16405;53.964;13.448;2024-01-06T08:34:02;100965.03;;;-1.01;80.72
29433;BME280;16405;53.964;13.448;2024-01-06T08:36:44;100966.75;;;-1.03;80.87
29433;BME280;16405;53.964;13.448;2024-01-06T08:46:51;101002.09;;;-0.94;80.15
29433;BME280;16405;53.964;13.448;2024-01-06T08:49:55;101005.56;;;-0.89;80.54
29433;BME280;16405;53.964;13.448;2024-01-06T08:52:33;101015.94;;;-0.86;80.81
29433;BME280;16405;53.964;13.448;2024-01-06T08:55:14;101021.13;;;-0.81;80.51
29433;BME280;16405;53.964;13.448;2024-01-06T08:57:48;101025.44;;;-0.76;80.98
29433;BME280;16405;53.964;13.448;2024-01-06T09:00:14;101033.19;;;-0.76;80.55
29433;BME280;16405;53.964;13.448;2024-01-06T09:02:41;101040.13;;;-0.72;80.42
29433;BME280;16405;53.964;13.448;2024-01-06T09:05:07;101055.63;;;-0.72;79.85
29433;BME280;16405;53.964;13.448;2024-01-06T09:07:42;101053.88;;;-0.76;79.16
29433;BME280;16405;53.964;13.448;2024-01-06T09:10:24;101054.78;;;-0.69;79.60
29433;BME280;16405;53.964;13.448;2024-01-06T09:12:50;101066.84;;;-0.70;78.80
29433;BME280;16405;53.964;13.448;2024-01-06T09:15:16;101063.41;;;-0.75;78.24
29433;BME280;16405;53.964;13.448;2024-01-06T09:17:48;101075.47;;;-0.72;78.62
29433;BME280;16405;53.964;13.448;2024-01-06T09:20:14;101076.34;;;-0.69;78.54
29433;BME280;16405;53.964;13.448;2024-01-06T09:22:43;101081.50;;;-0.72;78.19
29433;BME280;16405;53.964;13.448;2024-01-06T09:25:12;101084.97;;;-0.71;78.09
29433;BME280;16405;53.964;13.448;2024-01-06T09:27:44;101095.28;;;-0.77;77.53
29433;BME280;16405;53.964;13.448;2024-01-06T09:30:22;101104.75;;;-0.76;77.62
29433;BME280;16405;53.964;13.448;2024-01-06T09:32:51;101112.56;;;-0.69;77.10
29433;BME280;16405;53.964;13.448;2024-01-06T09:36:12;101109.16;;;-0.65;77.11
29433;BME280;16405;53.964;13.448;2024-01-06T09:42:03;101114.31;;;-0.58;76.86
29433;BME280;16405;53.964;13.448;2024-01-06T09:44:33;101120.41;;;-0.53;76.73
29433;BME280;16405;53.964;13.448;2024-01-06T09:47:13;101135.09;;;-0.46;77.39
29433;BME280;16405;53.964;13.448;2024-01-06T09:52:47;101130.78;;;-0.47;76.88
29433;BME280;16405;53.964;13.448;2024-01-06T09:55:26;101131.66;;;-0.47;76.97
29433;BME280;16405;53.964;13.448;2024-01-06T09:58:41;101138.56;;;-0.44;76.37
29433;BME280;16405;53.964;13.448;2024-01-06T10:01:30;101148.94;;;-0.38;76.66
29433;BME280;16405;53.964;13.448;2024-01-06T10:04:01;101142.03;;;-0.37;76.61
29433;BME280;16405;53.964;13.448;2024-01-06T10:06:52;101144.66;;;-0.34;76.84
29433;BME280;16405;53.964;13.448;2024-01-06T10:10:08;101148.97;;;-0.30;77.09
29433;BME280;16405;53.964;13.448;2024-01-06T10:12:52;101136.88;;;-0.33;76.14
29433;BME280;16405;53.964;13.448;2024-01-06T10:15:41;101148.09;;;-0.38;76.35
29433;BME280;16405;53.964;13.448;2024-01-06T10:21:32;101147.16;;;-0.44;75.76
29433;BME280;16405;53.964;13.448;2024-01-06T10:24:13;101148.09;;;-0.38;75.88
29433;BME280;16405;53.964;13.448;2024-01-06T10:26:42;101151.50;;;-0.43;75.97
29433;BME280;16405;53.964;13.448;2024-01-06T10:29:34;101140.31;;;-0.43;75.99
29433;BME280;16405;53.964;13.448;2024-01-06T10:32:03;101147.22;;;-0.36;75.87
29433;BME280;16405;53.964;13.448;2024-01-06T10:34:40;101149.00;;;-0.26;75.75
29433;BME280;16405;53.964;13.448;2024-01-06T10:37:16;101151.59;;;-0.27;75.34
29433;BME280;16405;53.964;13.448;2024-01-06T10:39:43;101150.72;;;-0.25;76.27
29433;BME280;16405;53.964;13.448;2024-01-06T10:42:22;101153.34;;;-0.22;76.32
29433;BME280;16405;53.964;13.448;2024-01-06T10:44:51;101149.88;;;-0.24;76.24
29433;BME280;16405;53.964;13.448;2024-01-06T10:47:27;101161.97;;;-0.21;75.82
29433;BME280;16405;53.964;13.448;2024-01-06T10:50:07;101164.56;;;-0.18;75.54
29433;BME280;16405;53.964;13.448;2024-01-06T10:53:05;101168.88;;;-0.14;75.94
29433;BME280;16405;53.964;13.448;2024-01-06T10:59:00;101169.75;;;-0.13;76.29
29433;BME280;16405;53.964;13.448;2024-01-06T11:01:47;101168.06;;;-0.08;75.85
29433;BME280;16405;53.964;13.448;2024-01-06T11:04:32;101161.09;;;-0.15;75.12
29433;BME280;16405;53.964;13.448;2024-01-06T11:06:58;101166.31;;;-0.14;75.27
29433;BME280;16405;53.964;13.448;2024-01-06T11:09:41;101174.94;;;-0.13;75.19
29433;BME280;16405;53.964;13.448;2024-01-06T11:12:32;101175.75;;;-0.17;74.98
29433;BME280;16405;53.964;13.448;2024-01-06T11:15:45;101175.75;;;-0.22;75.48
29433;BME280;16405;53.964;13.448;2024-01-06T11:17:55;101175.75;;;-0.22;75.26
29433;BME280;16405;53.964;13.448;2024-01-06T11:20:32;101180.94;;;-0.21;74.69
29433;BME280;16405;53.964;13.448;2024-01-06T11:23:23;101183.53;;;-0.21;75.56
29433;BME280;16405;53.964;13.448;2024-01-06T11:25:55;101186.13;;;-0.19;75.11
29433;BME280;16405;53.964;13.448;2024-01-06T11:28:46;101176.66;;;-0.12;75.46
29433;BME280;16405;53.964;13.448;2024-01-06T11:31:42;101172.38;;;-0.10;75.45
29433;BME280;16405;53.964;13.448;2024-01-06T11:34:25;101178.38;;;-0.16;75.11
29433;BME280;16405;53.964;13.448;2024-01-06T11:37:04;101175.78;;;-0.16;74.24
29433;BME280;16405;53.964;13.448;2024-01-06T11:39:44;101167.16;;;-0.18;75.21
29433;BME280;16405;53.964;13.448;2024-01-06T11:42:22;101171.50;;;-0.12;75.40
29433;BME280;16405;53.964;13.448;2024-01-06T11:45:17;101170.63;;;-0.14;75.13
29433;BME280;16405;53.964;13.448;2024-01-06T11:48:00;101165.44;;;-0.11;74.90
29433;BME280;16405;53.964;13.448;2024-01-06T11:50:38;101154.25;;;-0.10;74.86
29433;BME280;16405;53.964;13.448;2024-01-06T11:53:08;101163.72;;;-0.12;74.93
29433;BME280;16405;53.964;13.448;2024-01-06T11:55:43;101167.19;;;-0.09;75.23
29433;BME280;16405;53.964;13.448;2024-01-06T11:58:09;101163.75;;;-0.08;75.62
29433;BME280;16405;53.964;13.448;2024-01-06T12:00:35;101172.38;;;-0.03;76.05
29433;BME280;16405;53.964;13.448;2024-01-06T12:03:08;101169.81;;;-0.04;75.23
29433;BME280;16405;53.964;13.448;2024-01-06T12:05:35;101174.13;;;-0.02;75.36
29433;BME280;16405;53.964;13.448;2024-01-06T12:08:04;101174.13;;;-0.02;74.90
29433;BME280;16405;53.964;13.448;2024-01-06T12:10:42;101184.47;;;-0.03;75.05
29433;BME280;16405;53.964;13.448;2024-01-06T12:13:08;101173.25;;;-0.05;74.38
29433;BME280;16405;53.964;13.448;2024-01-06T12:15:48;101177.56;;;-0.01;74.35
29433;BME280;16405;53.964;13.448;2024-01-06T12:18:22;101168.03;;;-0.11;74.61
29433;BME280;16405;53.964;13.448;2024-01-06T12:20:52;101174.13;;;-0.06;74.41
29433;BME280;16405;53.964;13.448;2024-01-06T12:23:28;101165.47;;;-0.13;74.38
29433;BME280;16405;53.964;13.448;2024-01-06T12:25:55;101176.69;;;-0.06;74.94
29433;BME280;16405;53.964;13.448;2024-01-06T12:28:29;101172.38;;;-0.06;75.10
29433;BME280;16405;53.964;13.448;2024-01-06T12:30:54;101179.22;;;-0.15;75.12
29433;BME280;16405;53.964;13.448;2024-01-06T12:33:20;101177.50;;;-0.18;74.73
29433;BME280;16405;53.964;13.448;2024-01-06T12:35:46;101175.75;;;-0.17;74.65
29433;BME280;16405;53.964;13.448;2024-01-06T12:38:12;101166.28;;;-0.20;75.07
29433;BME280;16405;53.964;13.448;2024-01-06T12:40:44;101169.72;;;-0.19;75.85
29433;BME280;16405;53.964;13.448;2024-01-06T12:43:11;101172.28;;;-0.24;75.79
29433;BME280;16405;53.964;13.448;2024-01-06T12:45:37;101174.06;;;-0.18;76.19
29433;BME280;16405;53.964;13.448;2024-01-06T12:48:03;101168.00;;;-0.21;75.84
29433;BME280;16405;53.964;13.448;2024-01-06T12:50:35;101186.97;;;-0.25;75.87
29433;BME280;16405;53.964;13.448;2024-01-06T12:53:01;101180.94;;;-0.21;75.67
29433;BME280;16405;53.964;13.448;2024-01-06T12:55:27;101195.59;;;-0.23;75.17
29433;BME280;16405;53.964;13.448;2024-01-06T12:57:52;101213.72;;;-0.23;75.25
29433;BME280;16405;53.964;13.448;2024-01-06T13:00:18;101214.59;;;-0.24;75.89
29433;BME280;16405;53.964;13.448;2024-01-06T13:02:53;101214.59;;;-0.21;75.44
29433;BME280;16405;53.964;13.448;2024-01-06T13:05:19;101210.28;;;-0.22;75.70
29433;BME280;16405;53.964;13.448;2024-01-06T13:07:45;101217.19;;;-0.19;75.64
29433;BME280;16405;53.964;13.448;2024-01-06T13:10:11;101212.88;;;-0.15;75.80
29433;BME280;16405;53.964;13.448;2024-01-06T13:12:46;101218.94;;;-0.13;76.08
29433;BME280;16405;53.964;13.448;2024-01-06T13:15:12;101209.44;;;-0.16;76.09
29433;BME280;16405;53.964;13.448;2024-01-06T13:17:38;101212.88;;;-0.18;76.37
29433;BME280;16405;53.964;13.448;2024-01-06T13:20:14;101214.59;;;-0.21;76.49
29433;BME280;16405;53.964;13.448;2024-01-06T13:22:41;101220.66;;;-0.18;76.16
29433;BME280;16405;53.964;13.448;2024-01-06T13:25:07;101210.28;;;-0.22;76.27
29433;BME280;16405;53.964;13.448;2024-01-06T13:27:41;101224.06;;;-0.23;76.27
29433;BME280;16405;53.964;13.448;2024-01-06T13:30:08;101228.41;;;-0.22;76.45
29433;BME280;16405;53.964;13.448;2024-01-06T13:32:34;101231.81;;;-0.26;76.17
29433;BME280;16405;53.964;13.448;2024-01-06T13:34:59;101231.84;;;-0.23;76.51
29433;BME280;16405;53.964;13.448;2024-01-06T13:37:33;101243.03;;;-0.22;76.31
29433;BME280;16405;53.964;13.448;2024-01-06T13:39:58;101244.75;;;-0.27;76.03
29433;BME280;16405;53.964;13.448;2024-01-06T13:42:24;101239.56;;;-0.29;76.12
29433;BME280;16405;53.964;13.448;2024-01-06T13:44:50;101252.47;;;-0.30;76.12
29433;BME280;16405;53.964;13.448;2024-01-06T13:47:16;101251.66;;;-0.28;75.89
29433;BME280;16405;53.964;13.448;2024-01-06T13:49:47;101247.31;;;-0.32;75.93
29433;BME280;16405;53.964;13.448;2024-01-06T13:52:13;101247.28;;;-0.35;76.55
29433;BME280;16405;53.964;13.448;2024-01-06T13:54:39;101239.47;;;-0.39;76.32
29433;BME280;16405;53.964;13.448;2024-01-06T13:57:05;101242.88;;;-0.48;75.95
29433;BME280;16405;53.964;13.448;2024-01-06T13:59:31;101241.19;;;-0.45;76.40
29433;BME280;16405;53.964;13.448;2024-01-06T14:02:05;101239.47;;;-0.44;76.21
29433;BME280;16405;53.964;13.448;2024-01-06T14:04:32;101245.44;;;-0.51;76.49
29433;BME280;16405;53.964;13.448;2024-01-06T14:06:58;101255.81;;;-0.48;76.37
29433;BME280;16405;53.964;13.448;2024-01-06T14:09:24;101274.78;;;-0.48;76.93
29433;BME280;16405;53.964;13.448;2024-01-06T14:11:59;101270.47;;;-0.52;76.34
29433;BME280;16405;53.964;13.448;2024-01-06T14:14:25;101274.75;;;-0.52;76.45
29433;BME280;16405;53.964;13.448;2024-01-06T14:16:52;101276.41;;;-0.62;76.16
29433;BME280;16405;53.964;13.448;2024-01-06T14:19:27;101279.00;;;-0.59;76.88
29433;BME280;16405;53.964;13.448;2024-01-06T14:21:52;101284.22;;;-0.57;76.54
29433;BME280;16405;53.964;13.448;2024-01-06T14:24:18;101288.47;;;-0.63;76.71
29433;BME280;16405;53.964;13.448;2024-01-06T14:26:54;101296.25;;;-0.61;76.04
29433;BME280;16405;53.964;13.448;2024-01-06T14:29:21;101305.72;;;-0.65;75.93
29433;BME280;16405;53.964;13.448;2024-01-06T14:31:48;101313.50;;;-0.58;76.50
29433;BME280;16405;53.964;13.448;2024-01-06T14:34:19;101312.66;;;-0.54;76.55
29433;BME280;16405;53.964;13.448;2024-01-06T14:36:45;101321.34;;;-0.51;76.88
29433;BME280;16405;53.964;13.448;2024-01-06T14:39:17;101314.44;;;-0.53;76.98
29433;BME280;16405;53.964;13.448;2024-01-06T14:41:43;101311.75;;;-0.61;76.96
29433;BME280;16405;53.964;13.448;2024-01-06T14:44:08;101318.69;;;-0.60;76.16
29433;BME280;16405;53.964;13.448;2024-01-06T14:46:41;101318.66;;;-0.62;76.58
29433;BME280;16405;53.964;13.448;2024-01-06T14:49:08;101323.81;;;-0.65;76.37
29433;BME280;16405;53.964;13.448;2024-01-06T14:51:34;101328.97;;;-0.63;76.66
29433;BME280;16405;53.964;13.448;2024-01-06T14:53:59;101327.22;;;-0.69;76.69
29433;BME280;16405;53.964;13.448;2024-01-06T14:56:25;101341.00;;;-0.68;76.30
29433;BME280;16405;53.964;13.448;2024-01-06T14:58:59;101338.44;;;-0.67;76.63
29433;BME280;16405;53.964;13.448;2024-01-06T15:01:24;101334.97;;;-0.69;76.39
29433;BME280;16405;53.964;13.448;2024-01-06T15:03:50;101343.63;;;-0.67;76.38
29433;BME280;16405;53.964;13.448;2024-01-06T15:06:16;101342.75;;;-0.66;76.43
29433;BME280;16405;53.964;13.448;2024-01-06T15:08:48;101340.09;;;-0.72;76.49
29433;BME280;16405;53.964;13.448;2024-01-06T15:11:14;101359.03;;;-0.77;76.11
29433;BME280;16405;53.964;13.448;2024-01-06T15:13:40;101352.13;;;-0.78;76.20
29433;BME280;16405;53.964;13.448;2024-01-06T15:16:06;101365.09;;;-0.75;76.03
29433;BME280;16405;53.964;13.448;2024-01-06T15:18:32;101361.63;;;-0.77;75.90
29433;BME280;16405;53.964;13.448;2024-01-06T15:21:07;101365.09;;;-0.74;75.79
29433;BME280;16405;53.964;13.448;2024-01-06T15:23:33;101371.09;;;-0.76;75.75
29433;BME280;16405;53.964;13.448;2024-01-06T15:25:59;101379.69;;;-0.82;75.55
29433;BME280;16405;53.964;13.448;2024-01-06T15:28:32;101371.06;;;-0.78;75.75
29433;BME280;16405;53.964;13.448;2024-01-06T15:30:57;101383.16;;;-0.77;76.43
29433;BME280;16405;53.964;13.448;2024-01-06T15:33:25;101386.59;;;-0.78;75.60
29433;BME280;16405;53.964;13.448;2024-01-06T15:35:51;101384.84;;;-0.80;75.18
29433;BME280;16405;53.964;13.448;2024-01-06T15:38:24;101383.19;;;-0.74;75.85
29433;BME280;16405;53.964;13.448;2024-01-06T15:40:50;101389.25;;;-0.72;76.12
29433;BME280;16405;53.964;13.448;2024-01-06T15:43:15;101391.84;;;-0.73;75.82
29433;BME280;16405;53.964;13.448;2024-01-06T15:45:41;101392.72;;;-0.70;75.52
29433;BME280;16405;53.964;13.448;2024-01-06T15:48:07;101393.56;;;-0.72;76.09
29433;BME280;16405;53.964;13.448;2024-01-06T15:50:42;101394.41;;;-0.72;75.76
29433;BME280;16405;53.964;13.448;2024-01-06T15:53:08;101390.06;;;-0.76;75.72
29433;BME280;16405;53.964;13.448;2024-01-06T15:55:34;101398.72;;;-0.74;76.03
29433;BME280;16405;53.964;13.448;2024-01-06T15:57:59;101399.59;;;-0.73;75.79
29433;BME280;16405;53.964;13.448;2024-01-06T16:00:25;101403.81;;;-0.80;75.28
29433;BME280;16405;53.964;13.448;2024-01-06T16:02:59;101413.34;;;-0.77;75.28
29433;BME280;16405;53.964;13.448;2024-01-06T16:05:25;101418.44;;;-0.84;74.84
29433;BME280;16405;53.964;13.448;2024-01-06T16:07:52;101425.28;;;-0.87;74.69
29433;BME280;16405;53.964;13.448;2024-01-06T16:10:24;101419.28;;;-0.85;74.57
29433;BME280;16405;53.964;13.448;2024-01-06T16:12:50;101426.16;;;-0.88;75.06
29433;BME280;16405;53.964;13.448;2024-01-06T16:15:19;101446.78;;;-0.91;74.85
29433;BME280;16405;53.964;13.448;2024-01-06T16:17:52;101436.44;;;-0.91;75.16
29433;BME280;16405;53.964;13.448;2024-01-06T16:20:17;101441.59;;;-0.91;75.07
29433;BME280;16405;53.964;13.448;2024-01-06T16:22:43;101441.59;;;-0.91;74.70
29433;BME280;16405;53.964;13.448;2024-01-06T16:25:12;101445.88;;;-0.96;74.49
29433;BME280;16405;53.964;13.448;2024-01-06T16:27:46;101444.97;;;-0.98;74.36
29433;BME280;16405;53.964;13.448;2024-01-06T16:30:12;101445.81;;;-0.99;74.97
29433;BME280;16405;53.964;13.448;2024-01-06T16:32:39;101443.19;;;-1.04;74.65
29433;BME280;16405;53.964;13.448;2024-01-06T16:35:05;101441.34;;;-1.13;74.13
29433;BME280;16405;53.964;13.448;2024-01-06T16:37:40;101463.78;;;-1.12;74.36
29433;BME280;16405;53.964;13.448;2024-01-06T16:40:07;101462.81;;;-1.17;74.13
29433;BME280;16405;53.964;13.448;2024-01-06T16:42:45;101456.00;;;-1.13;74.67
29433;BME280;16405;53.964;13.448;2024-01-06T16:45:11;101458.59;;;-1.12;74.50
29433;BME280;16405;53.964;13.448;2024-01-06T16:47:48;101459.38;;;-1.17;74.90
29433;BME280;16405;53.964;13.448;2024-01-06T16:50:14;101451.59;;;-1.19;74.35
29433;BME280;16405;53.964;13.448;2024-01-06T16:52:39;101450.72;;;-1.21;74.41
29433;BME280;16405;53.964;13.448;2024-01-06T16:55:15;101462.00;;;-1.16;74.81
29433;BME280;16405;53.964;13.448;2024-01-06T16:57:44;101473.13;;;-1.20;74.36
29433;BME280;16405;53.964;13.448;2024-01-06T17:00:17;101468.84;;;-1.18;74.34
29433;BME280;16405;53.964;13.448;2024-01-06T17:02:43;101475.69;;;-1.21;74.37